LKPRLKKV

Guest
Details From LKPR - Praha - Ruzyne
To LKKV - Karlovy Vary
Flight Number -
Tags decoded
Created
Modified
Stats Distance 53 nm / 99 km
Max Altitude 0 ft / 0 m
Waypoints 3
Social Downloads 2
Likes 0
Share VATSIM

Download

Looking for another format? Having issues loading an existing format? Contact us
Advertisement - Login to hide

Notes

Requested: LKPR BALTU LKKV

Route

LKPR BALTU LKKV

ID Type Via Altitude Latitude Longitude Leg Dist Tot Dist Heading (true) Name
O LKPR APT - 0 ft / 0 m 50.10114˚ 14.26296˚ - 0 nm - Praha - Ruzyne
BALTU FIX - 0 ft / 0 m 50.08946˚ 13.32652˚ 36 nm 36 nm 269° / 269° -
O LKKV APT - 0 ft / 0 m 50.20349˚ 12.91446˚ 17 nm 53 nm 294° / 293° Karlovy Vary

Altitude Profile

Advertisement - Login to hide

LKPR

Details ICAO LKPR (PRG)
Name Praha - Ruzyne
Region Czech Republic
Timezone Europe/Prague (UTC+2.0)
Stats Elevation 1,246 ft / 380 m (AMSL)
Location 50.101144° 14.262963°
Runways 3
Magnetic Variation 3.916° E

METAR

LKPR 201000Z 07013KT CAVOK 17/03 Q1024 NOSIG

Decode

TAF

TAF LKPR 200500Z 2006/2112 07005KT CAVOK BECMG 2007/2009 07012KT TEMPO 2010/2018 08014G24KT TEMPO 2107/2112 09014G26KT

Decode

Departure Runways

ID Width Length Bearing (true) Bearing (mag) Surface Threshold Offset Overrun Length
04 197 ft / 60 m 6,932 ft / 2,113 m 36.80° 32.88° Asphalt 0 ft / 0 m 0 ft / 0 m
06 148 ft / 45 m 12,160 ft / 3,706 m 64.92° 61.00° Concrete 0 ft / 0 m 0 ft / 0 m
12 148 ft / 45 m 10,622 ft / 3,238 m 126.99° 123.07° Concrete 0 ft / 0 m 0 ft / 0 m
22 197 ft / 60 m 6,932 ft / 2,113 m 216.81° 212.89° Asphalt 0 ft / 0 m 591 ft / 180 m
24 148 ft / 45 m 12,160 ft / 3,706 m 244.96° 241.04° Concrete 0 ft / 0 m 0 ft / 0 m
30 148 ft / 45 m 10,622 ft / 3,238 m 307.01° 303.09° Concrete 0 ft / 0 m 0 ft / 0 m

LKKV

Details ICAO LKKV (KLV)
Name Karlovy Vary
Region Czech Republic
Timezone Europe/Prague (UTC+2.0)
Stats Elevation 1,988 ft / 606 m (AMSL)
Location 50.203487° 12.914461°
Runways 2
Magnetic Variation 3.576° E

METAR

LKKV 201000Z 07013KT 020V100 CAVOK 17/04 Q1023

Decode

TAF

TAF LKKV 200500Z 2006/2112 VRB02KT CAVOK BECMG 2008/2010 05008KT TEMPO 2010/2100 08010G20KT

Decode

Destination Runways

ID Width Length Bearing (true) Bearing (mag) Surface Threshold Offset Overrun Length
11 98 ft / 30 m 7,049 ft / 2,149 m 113.09° 109.51° Asphalt 495 ft / 151 m 0 ft / 0 m
12 98 ft / 30 m 3,351 ft / 1,021 m 113.19° 109.61° Grass 0 ft / 0 m 0 ft / 0 m
29 98 ft / 30 m 7,049 ft / 2,149 m 293.11° 289.53° Asphalt 0 ft / 0 m 0 ft / 0 m
30 98 ft / 30 m 3,351 ft / 1,021 m 293.20° 289.62° Grass 0 ft / 0 m 0 ft / 0 m

Approach Navaids

Runway Type Ident Frequency Range Bearing (true) Bearing (mag) Slope Elevation
29 Localiser KVY 111.55 MHz 18 nm / 33 km 293.13° 289.56° - 1,988 ft / 606 m (AMSL)
29 DME KVY 111.55 MHz 18 nm / 33 km - - - 1,998 ft / 609 m (AMSL)

Popular Alternatives